sensor_id;sensor_type;location;lat;lon;timestamp;P1;durP1;ratioP1;P2;durP2;ratioP2
10201;SDS011;5143;42.584;23.164;2023-07-13T00:00:36;6.63;;;4.30;;
10201;SDS011;5143;42.584;23.164;2023-07-13T00:03:03;7.63;;;4.00;;
10201;SDS011;5143;42.584;23.164;2023-07-13T00:05:30;6.83;;;3.50;;
10201;SDS011;5143;42.584;23.164;2023-07-13T00:07:57;6.43;;;4.03;;
10201;SDS011;5143;42.584;23.164;2023-07-13T00:10:24;5.97;;;3.40;;
10201;SDS011;5143;42.584;23.164;2023-07-13T00:12:52;7.63;;;3.70;;
10201;SDS011;5143;42.584;23.164;2023-07-13T00:15:21;4.20;;;3.20;;
10201;SDS011;5143;42.584;23.164;2023-07-13T00:17:50;9.80;;;3.80;;
10201;SDS011;5143;42.584;23.164;2023-07-13T00:20:18;4.90;;;3.50;;
10201;SDS011;5143;42.584;23.164;2023-07-13T00:22:47;5.47;;;3.33;;
10201;SDS011;5143;42.584;23.164;2023-07-13T00:25:14;4.37;;;3.43;;
10201;SDS011;5143;42.584;23.164;2023-07-13T00:27:41;6.17;;;3.33;;
10201;SDS011;5143;42.584;23.164;2023-07-13T00:30:10;8.97;;;3.90;;
10201;SDS011;5143;42.584;23.164;2023-07-13T00:32:37;5.83;;;3.60;;
10201;SDS011;5143;42.584;23.164;2023-07-13T00:35:04;11.37;;;3.93;;
10201;SDS011;5143;42.584;23.164;2023-07-13T00:37:32;7.50;;;3.60;;
10201;SDS011;5143;42.584;23.164;2023-07-13T00:40:00;5.97;;;3.63;;
10201;SDS011;5143;42.584;23.164;2023-07-13T00:42:28;4.70;;;3.80;;
10201;SDS011;5143;42.584;23.164;2023-07-13T00:45:02;8.27;;;3.97;;
10201;SDS011;5143;42.584;23.164;2023-07-13T00:47:36;5.57;;;3.47;;
10201;SDS011;5143;42.584;23.164;2023-07-13T00:50:03;4.97;;;3.83;;
10201;SDS011;5143;42.584;23.164;2023-07-13T00:52:31;4.83;;;3.40;;
10201;SDS011;5143;42.584;23.164;2023-07-13T00:55:01;9.97;;;3.50;;
10201;SDS011;5143;42.584;23.164;2023-07-13T00:57:29;5.33;;;3.57;;
10201;SDS011;5143;42.584;23.164;2023-07-13T00:59:57;5.63;;;3.50;;
10201;SDS011;5143;42.584;23.164;2023-07-13T01:02:31;6.03;;;3.47;;
10201;SDS011;5143;42.584;23.164;2023-07-13T01:05:01;4.73;;;3.50;;
10201;SDS011;5143;42.584;23.164;2023-07-13T01:07:27;6.47;;;3.97;;
10201;SDS011;5143;42.584;23.164;2023-07-13T01:09:54;14.60;;;3.97;;
10201;SDS011;5143;42.584;23.164;2023-07-13T01:12:21;4.23;;;3.67;;
10201;SDS011;5143;42.584;23.164;2023-07-13T01:14:48;5.70;;;3.77;;
10201;SDS011;5143;42.584;23.164;2023-07-13T01:17:14;5.47;;;3.67;;
10201;SDS011;5143;42.584;23.164;2023-07-13T01:19:43;6.03;;;3.73;;
10201;SDS011;5143;42.584;23.164;2023-07-13T01:22:13;3.97;;;3.43;;
10201;SDS011;5143;42.584;23.164;2023-07-13T01:24:42;12.93;;;4.13;;
10201;SDS011;5143;42.584;23.164;2023-07-13T01:27:11;5.50;;;3.53;;
10201;SDS011;5143;42.584;23.164;2023-07-13T01:29:39;5.97;;;3.80;;
10201;SDS011;5143;42.584;23.164;2023-07-13T01:32:07;7.37;;;3.83;;
10201;SDS011;5143;42.584;23.164;2023-07-13T01:34:35;8.90;;;4.00;;
10201;SDS011;5143;42.584;23.164;2023-07-13T01:37:03;6.07;;;3.83;;
10201;SDS011;5143;42.584;23.164;2023-07-13T01:39:32;4.87;;;3.50;;
10201;SDS011;5143;42.584;23.164;2023-07-13T01:41:59;10.53;;;3.50;;
10201;SDS011;5143;42.584;23.164;2023-07-13T01:44:26;6.03;;;3.97;;
10201;SDS011;5143;42.584;23.164;2023-07-13T01:46:53;9.00;;;3.83;;
10201;SDS011;5143;42.584;23.164;2023-07-13T01:49:20;5.40;;;3.80;;
10201;SDS011;5143;42.584;23.164;2023-07-13T01:51:46;10.83;;;4.17;;
10201;SDS011;5143;42.584;23.164;2023-07-13T01:54:13;7.07;;;4.03;;
10201;SDS011;5143;42.584;23.164;2023-07-13T01:56:42;4.83;;;4.07;;
10201;SDS011;5143;42.584;23.164;2023-07-13T01:59:08;4.10;;;3.03;;
10201;SDS011;5143;42.584;23.164;2023-07-13T02:01:35;11.23;;;4.00;;
10201;SDS011;5143;42.584;23.164;2023-07-13T02:04:02;4.83;;;3.33;;
10201;SDS011;5143;42.584;23.164;2023-07-13T02:06:29;6.40;;;4.00;;
10201;SDS011;5143;42.584;23.164;2023-07-13T02:08:57;4.27;;;3.23;;
10201;SDS011;5143;42.584;23.164;2023-07-13T02:11:24;6.30;;;3.87;;
10201;SDS011;5143;42.584;23.164;2023-07-13T02:13:58;11.53;;;4.57;;
10201;SDS011;5143;42.584;23.164;2023-07-13T02:16:25;7.97;;;3.00;;
10201;SDS011;5143;42.584;23.164;2023-07-13T02:18:52;5.13;;;3.60;;
10201;SDS011;5143;42.584;23.164;2023-07-13T02:21:20;9.10;;;3.73;;
10201;SDS011;5143;42.584;23.164;2023-07-13T02:23:47;8.43;;;3.93;;
10201;SDS011;5143;42.584;23.164;2023-07-13T02:26:14;6.43;;;4.10;;
10201;SDS011;5143;42.584;23.164;2023-07-13T02:28:41;8.47;;;3.90;;
10201;SDS011;5143;42.584;23.164;2023-07-13T02:31:11;6.33;;;3.73;;
10201;SDS011;5143;42.584;23.164;2023-07-13T02:33:39;4.87;;;3.90;;
10201;SDS011;5143;42.584;23.164;2023-07-13T02:36:06;7.00;;;4.40;;
10201;SDS011;5143;42.584;23.164;2023-07-13T02:38:33;6.83;;;4.33;;
10201;SDS011;5143;42.584;23.164;2023-07-13T02:41:01;6.33;;;3.67;;
10201;SDS011;5143;42.584;23.164;2023-07-13T02:43:27;10.07;;;4.50;;
10201;SDS011;5143;42.584;23.164;2023-07-13T02:45:55;11.53;;;4.10;;
10201;SDS011;5143;42.584;23.164;2023-07-13T02:48:23;7.50;;;4.07;;
10201;SDS011;5143;42.584;23.164;2023-07-13T02:50:49;11.63;;;4.07;;
10201;SDS011;5143;42.584;23.164;2023-07-13T02:53:16;7.70;;;3.57;;
10201;SDS011;5143;42.584;23.164;2023-07-13T02:55:43;8.30;;;4.00;;
10201;SDS011;5143;42.584;23.164;2023-07-13T02:58:12;10.93;;;4.20;;
10201;SDS011;5143;42.584;23.164;2023-07-13T03:00:42;10.37;;;3.83;;
10201;SDS011;5143;42.584;23.164;2023-07-13T03:03:09;8.13;;;3.70;;
10201;SDS011;5143;42.584;23.164;2023-07-13T03:05:40;5.33;;;3.93;;
10201;SDS011;5143;42.584;23.164;2023-07-13T03:08:09;9.10;;;4.10;;
10201;SDS011;5143;42.584;23.164;2023-07-13T03:10:35;13.60;;;4.40;;
10201;SDS011;5143;42.584;23.164;2023-07-13T03:13:02;8.60;;;4.53;;
10201;SDS011;5143;42.584;23.164;2023-07-13T03:15:29;7.30;;;3.90;;
10201;SDS011;5143;42.584;23.164;2023-07-13T03:17:55;9.37;;;3.93;;
10201;SDS011;5143;42.584;23.164;2023-07-13T03:20:22;14.53;;;4.30;;
10201;SDS011;5143;42.584;23.164;2023-07-13T03:22:50;11.13;;;4.60;;
10201;SDS011;5143;42.584;23.164;2023-07-13T03:25:17;8.40;;;4.10;;
10201;SDS011;5143;42.584;23.164;2023-07-13T03:27:44;10.20;;;3.80;;
10201;SDS011;5143;42.584;23.164;2023-07-13T03:30:11;10.90;;;4.07;;
10201;SDS011;5143;42.584;23.164;2023-07-13T03:32:38;11.67;;;4.37;;
10201;SDS011;5143;42.584;23.164;2023-07-13T03:35:05;7.03;;;4.20;;
10201;SDS011;5143;42.584;23.164;2023-07-13T03:37:32;4.33;;;3.80;;
10201;SDS011;5143;42.584;23.164;2023-07-13T03:40:00;10.30;;;4.63;;
10201;SDS011;5143;42.584;23.164;2023-07-13T03:42:27;5.63;;;3.90;;
10201;SDS011;5143;42.584;23.164;2023-07-13T03:44:54;14.70;;;4.40;;
10201;SDS011;5143;42.584;23.164;2023-07-13T03:47:21;10.87;;;3.87;;
10201;SDS011;5143;42.584;23.164;2023-07-13T03:49:47;11.13;;;4.33;;
10201;SDS011;5143;42.584;23.164;2023-07-13T03:52:14;12.33;;;4.27;;
10201;SDS011;5143;42.584;23.164;2023-07-13T03:54:41;9.43;;;4.20;;
10201;SDS011;5143;42.584;23.164;2023-07-13T03:57:09;20.87;;;4.87;;
10201;SDS011;5143;42.584;23.164;2023-07-13T03:59:36;8.70;;;4.00;;
10201;SDS011;5143;42.584;23.164;2023-07-13T04:02:03;21.20;;;4.73;;
10201;SDS011;5143;42.584;23.164;2023-07-13T04:04:30;9.23;;;4.87;;
10201;SDS011;5143;42.584;23.164;2023-07-13T04:06:57;7.47;;;3.90;;
10201;SDS011;5143;42.584;23.164;2023-07-13T04:09:24;8.93;;;4.13;;
10201;SDS011;5143;42.584;23.164;2023-07-13T04:11:51;16.87;;;4.50;;
10201;SDS011;5143;42.584;23.164;2023-07-13T04:14:19;6.83;;;4.03;;
10201;SDS011;5143;42.584;23.164;2023-07-13T04:16:46;11.33;;;4.70;;
10201;SDS011;5143;42.584;23.164;2023-07-13T04:19:13;15.80;;;4.53;;
10201;SDS011;5143;42.584;23.164;2023-07-13T04:21:40;7.33;;;4.00;;
10201;SDS011;5143;42.584;23.164;2023-07-13T04:24:06;8.10;;;3.90;;
10201;SDS011;5143;42.584;23.164;2023-07-13T04:26:33;7.93;;;4.10;;
10201;SDS011;5143;42.584;23.164;2023-07-13T04:29:03;13.63;;;5.20;;
10201;SDS011;5143;42.584;23.164;2023-07-13T04:31:32;8.47;;;3.80;;
10201;SDS011;5143;42.584;23.164;2023-07-13T04:33:59;12.77;;;4.17;;
10201;SDS011;5143;42.584;23.164;2023-07-13T04:36:26;6.70;;;3.87;;
10201;SDS011;5143;42.584;23.164;2023-07-13T04:38:53;11.40;;;3.90;;
10201;SDS011;5143;42.584;23.164;2023-07-13T04:41:20;13.57;;;4.28;;
10201;SDS011;5143;42.584;23.164;2023-07-13T04:43:47;15.93;;;3.88;;
10201;SDS011;5143;42.584;23.164;2023-07-13T04:46:15;8.18;;;4.60;;
10201;SDS011;5143;42.584;23.164;2023-07-13T04:48:45;15.75;;;4.85;;
10201;SDS011;5143;42.584;23.164;2023-07-13T04:51:12;11.65;;;4.57;;
10201;SDS011;5143;42.584;23.164;2023-07-13T04:53:39;13.25;;;4.95;;
10201;SDS011;5143;42.584;23.164;2023-07-13T04:56:06;10.63;;;5.15;;
10201;SDS011;5143;42.584;23.164;2023-07-13T04:58:33;7.57;;;3.97;;
10201;SDS011;5143;42.584;23.164;2023-07-13T05:01:00;8.95;;;3.67;;
10201;SDS011;5143;42.584;23.164;2023-07-13T05:03:28;6.75;;;4.50;;
10201;SDS011;5143;42.584;23.164;2023-07-13T05:05:57;10.57;;;4.55;;
10201;SDS011;5143;42.584;23.164;2023-07-13T05:08:26;13.68;;;6.38;;
10201;SDS011;5143;42.584;23.164;2023-07-13T05:10:53;14.30;;;6.68;;
10201;SDS011;5143;42.584;23.164;2023-07-13T05:13:20;13.07;;;5.80;;
10201;SDS011;5143;42.584;23.164;2023-07-13T05:15:55;12.20;;;5.45;;
10201;SDS011;5143;42.584;23.164;2023-07-13T05:18:22;12.43;;;5.47;;
10201;SDS011;5143;42.584;23.164;2023-07-13T05:20:54;11.43;;;5.68;;
10201;SDS011;5143;42.584;23.164;2023-07-13T05:23:25;15.90;;;6.18;;
10201;SDS011;5143;42.584;23.164;2023-07-13T05:25:52;16.13;;;5.82;;
10201;SDS011;5143;42.584;23.164;2023-07-13T05:28:19;13.52;;;5.80;;
10201;SDS011;5143;42.584;23.164;2023-07-13T05:30:46;11.98;;;5.80;;
10201;SDS011;5143;42.584;23.164;2023-07-13T05:33:13;17.42;;;6.35;;
10201;SDS011;5143;42.584;23.164;2023-07-13T05:35:40;16.55;;;6.68;;
10201;SDS011;5143;42.584;23.164;2023-07-13T05:38:09;11.02;;;6.35;;
10201;SDS011;5143;42.584;23.164;2023-07-13T05:40:35;13.48;;;6.07;;
10201;SDS011;5143;42.584;23.164;2023-07-13T05:43:02;15.00;;;6.18;;
10201;SDS011;5143;42.584;23.164;2023-07-13T05:45:29;11.95;;;5.65;;
10201;SDS011;5143;42.584;23.164;2023-07-13T05:47:56;10.38;;;5.50;;
10201;SDS011;5143;42.584;23.164;2023-07-13T05:50:23;12.07;;;5.53;;
10201;SDS011;5143;42.584;23.164;2023-07-13T05:52:50;12.15;;;5.72;;
10201;SDS011;5143;42.584;23.164;2023-07-13T05:55:19;11.35;;;5.38;;
10201;SDS011;5143;42.584;23.164;2023-07-13T05:57:45;16.08;;;6.97;;
10201;SDS011;5143;42.584;23.164;2023-07-13T06:00:12;12.95;;;7.05;;
10201;SDS011;5143;42.584;23.164;2023-07-13T06:02:40;14.63;;;6.90;;
10201;SDS011;5143;42.584;23.164;2023-07-13T06:05:07;14.55;;;7.20;;
10201;SDS011;5143;42.584;23.164;2023-07-13T06:07:34;21.83;;;8.63;;
10201;SDS011;5143;42.584;23.164;2023-07-13T06:10:01;27.70;;;8.02;;
10201;SDS011;5143;42.584;23.164;2023-07-13T06:12:30;10.68;;;5.78;;
10201;SDS011;5143;42.584;23.164;2023-07-13T06:14:56;12.45;;;5.85;;
10201;SDS011;5143;42.584;23.164;2023-07-13T06:17:23;18.80;;;7.30;;
10201;SDS011;5143;42.584;23.164;2023-07-13T06:19:50;13.93;;;6.75;;
10201;SDS011;5143;42.584;23.164;2023-07-13T06:22:16;18.00;;;7.10;;
10201;SDS011;5143;42.584;23.164;2023-07-13T06:24:43;14.18;;;6.53;;
10201;SDS011;5143;42.584;23.164;2023-07-13T06:27:10;14.00;;;7.13;;
10201;SDS011;5143;42.584;23.164;2023-07-13T06:29:38;14.35;;;6.93;;
10201;SDS011;5143;42.584;23.164;2023-07-13T06:32:06;13.68;;;7.82;;
10201;SDS011;5143;42.584;23.164;2023-07-13T06:34:33;14.45;;;7.88;;
10201;SDS011;5143;42.584;23.164;2023-07-13T06:37:00;18.42;;;7.80;;
10201;SDS011;5143;42.584;23.164;2023-07-13T06:39:27;13.48;;;6.40;;
10201;SDS011;5143;42.584;23.164;2023-07-13T06:41:54;14.63;;;6.78;;
10201;SDS011;5143;42.584;23.164;2023-07-13T06:44:21;14.27;;;6.60;;
10201;SDS011;5143;42.584;23.164;2023-07-13T06:46:49;17.65;;;5.78;;
10201;SDS011;5143;42.584;23.164;2023-07-13T06:49:16;8.90;;;5.40;;
10201;SDS011;5143;42.584;23.164;2023-07-13T06:51:43;9.52;;;4.60;;
10201;SDS011;5143;42.584;23.164;2023-07-13T06:54:10;5.88;;;3.13;;
10201;SDS011;5143;42.584;23.164;2023-07-13T06:56:36;6.82;;;2.80;;
10201;SDS011;5143;42.584;23.164;2023-07-13T06:59:03;4.10;;;2.25;;
10201;SDS011;5143;42.584;23.164;2023-07-13T07:01:30;3.55;;;2.60;;
10201;SDS011;5143;42.584;23.164;2023-07-13T07:03:58;2.80;;;2.35;;
10201;SDS011;5143;42.584;23.164;2023-07-13T07:06:25;5.25;;;2.55;;
10201;SDS011;5143;42.584;23.164;2023-07-13T07:08:53;4.80;;;2.22;;
10201;SDS011;5143;42.584;23.164;2023-07-13T07:11:21;4.20;;;2.90;;
10201;SDS011;5143;42.584;23.164;2023-07-13T07:13:49;5.82;;;2.63;;
10201;SDS011;5143;42.584;23.164;2023-07-13T07:16:17;3.95;;;2.28;;
10201;SDS011;5143;42.584;23.164;2023-07-13T07:18:45;3.10;;;2.42;;
10201;SDS011;5143;42.584;23.164;2023-07-13T07:21:13;3.47;;;2.40;;
10201;SDS011;5143;42.584;23.164;2023-07-13T07:23:40;2.30;;;2.10;;
10201;SDS011;5143;42.584;23.164;2023-07-13T07:26:08;3.50;;;2.33;;
10201;SDS011;5143;42.584;23.164;2023-07-13T07:28:35;11.80;;;2.65;;
10201;SDS011;5143;42.584;23.164;2023-07-13T07:31:02;3.33;;;2.38;;
10201;SDS011;5143;42.584;23.164;2023-07-13T07:33:29;4.35;;;2.28;;
10201;SDS011;5143;42.584;23.164;2023-07-13T07:35:56;5.53;;;2.22;;
10201;SDS011;5143;42.584;23.164;2023-07-13T07:38:24;4.88;;;2.70;;
10201;SDS011;5143;42.584;23.164;2023-07-13T07:40:51;5.30;;;2.35;;
10201;SDS011;5143;42.584;23.164;2023-07-13T07:43:18;3.00;;;2.30;;
10201;SDS011;5143;42.584;23.164;2023-07-13T07:45:45;5.30;;;2.70;;
10201;SDS011;5143;42.584;23.164;2023-07-13T07:48:12;8.15;;;2.92;;
10201;SDS011;5143;42.584;23.164;2023-07-13T07:50:39;3.45;;;2.25;;
10201;SDS011;5143;42.584;23.164;2023-07-13T07:53:06;3.63;;;2.35;;
10201;SDS011;5143;42.584;23.164;2023-07-13T07:55:36;3.42;;;2.30;;
10201;SDS011;5143;42.584;23.164;2023-07-13T07:58:04;4.53;;;2.20;;
10201;SDS011;5143;42.584;23.164;2023-07-13T08:00:32;3.38;;;2.58;;
10201;SDS011;5143;42.584;23.164;2023-07-13T08:03:00;3.58;;;2.47;;
10201;SDS011;5143;42.584;23.164;2023-07-13T08:05:28;3.97;;;2.33;;
10201;SDS011;5143;42.584;23.164;2023-07-13T08:07:54;4.85;;;2.25;;
10201;SDS011;5143;42.584;23.164;2023-07-13T08:10:22;4.10;;;2.47;;
10201;SDS011;5143;42.584;23.164;2023-07-13T08:12:50;5.18;;;2.42;;
10201;SDS011;5143;42.584;23.164;2023-07-13T08:15:17;4.60;;;2.50;;
10201;SDS011;5143;42.584;23.164;2023-07-13T08:17:45;7.22;;;2.65;;
10201;SDS011;5143;42.584;23.164;2023-07-13T08:20:13;5.65;;;2.20;;
10201;SDS011;5143;42.584;23.164;2023-07-13T08:22:39;2.65;;;2.28;;
10201;SDS011;5143;42.584;23.164;2023-07-13T08:25:07;3.42;;;2.60;;
10201;SDS011;5143;42.584;23.164;2023-07-13T08:27:34;6.70;;;2.60;;
10201;SDS011;5143;42.584;23.164;2023-07-13T08:30:02;4.35;;;2.38;;
10201;SDS011;5143;42.584;23.164;2023-07-13T08:32:30;6.50;;;2.75;;
10201;SDS011;5143;42.584;23.164;2023-07-13T08:34:57;8.75;;;3.10;;
10201;SDS011;5143;42.584;23.164;2023-07-13T08:37:24;7.13;;;3.03;;
10201;SDS011;5143;42.584;23.164;2023-07-13T08:39:51;7.60;;;3.03;;
10201;SDS011;5143;42.584;23.164;2023-07-13T08:42:23;3.25;;;2.92;;
10201;SDS011;5143;42.584;23.164;2023-07-13T08:45:02;6.05;;;2.97;;
10201;SDS011;5143;42.584;23.164;2023-07-13T08:47:40;6.30;;;2.92;;
10201;SDS011;5143;42.584;23.164;2023-07-13T08:50:12;6.13;;;3.30;;
10201;SDS011;5143;42.584;23.164;2023-07-13T08:52:43;6.10;;;3.88;;
10201;SDS011;5143;42.584;23.164;2023-07-13T08:55:12;5.82;;;3.20;;
10201;SDS011;5143;42.584;23.164;2023-07-13T08:57:41;9.40;;;3.20;;
10201;SDS011;5143;42.584;23.164;2023-07-13T09:00:14;4.90;;;3.17;;
10201;SDS011;5143;42.584;23.164;2023-07-13T09:02:42;6.07;;;3.35;;
10201;SDS011;5143;42.584;23.164;2023-07-13T09:05:15;9.65;;;2.88;;
10201;SDS011;5143;42.584;23.164;2023-07-13T09:07:54;6.97;;;2.88;;
10201;SDS011;5143;42.584;23.164;2023-07-13T09:10:28;5.70;;;2.92;;
10201;SDS011;5143;42.584;23.164;2023-07-13T09:13:03;3.90;;;2.97;;
10201;SDS011;5143;42.584;23.164;2023-07-13T09:15:43;7.20;;;3.30;;
10201;SDS011;5143;42.584;23.164;2023-07-13T09:18:13;5.65;;;2.78;;
10201;SDS011;5143;42.584;23.164;2023-07-13T09:20:46;5.43;;;3.20;;
10201;SDS011;5143;42.584;23.164;2023-07-13T09:23:19;6.03;;;2.83;;
10201;SDS011;5143;42.584;23.164;2023-07-13T09:25:48;7.15;;;2.95;;
10201;SDS011;5143;42.584;23.164;2023-07-13T09:28:22;4.15;;;3.00;;
10201;SDS011;5143;42.584;23.164;2023-07-13T09:30:54;7.10;;;2.90;;
10201;SDS011;5143;42.584;23.164;2023-07-13T09:33:27;3.83;;;3.17;;
10201;SDS011;5143;42.584;23.164;2023-07-13T09:35:55;7.55;;;3.67;;
10201;SDS011;5143;42.584;23.164;2023-07-13T09:38:24;5.50;;;3.17;;
10201;SDS011;5143;42.584;23.164;2023-07-13T09:40:58;6.88;;;3.13;;
10201;SDS011;5143;42.584;23.164;2023-07-13T09:43:29;10.23;;;3.80;;
10201;SDS011;5143;42.584;23.164;2023-07-13T09:45:57;7.13;;;3.20;;
10201;SDS011;5143;42.584;23.164;2023-07-13T09:48:24;11.43;;;3.95;;
10201;SDS011;5143;42.584;23.164;2023-07-13T09:50:54;7.55;;;3.10;;
10201;SDS011;5143;42.584;23.164;2023-07-13T09:53:22;6.10;;;3.25;;
10201;SDS011;5143;42.584;23.164;2023-07-13T09:55:49;7.10;;;3.47;;
10201;SDS011;5143;42.584;23.164;2023-07-13T09:58:17;6.00;;;2.83;;
10201;SDS011;5143;42.584;23.164;2023-07-13T10:00:53;5.80;;;3.28;;
10201;SDS011;5143;42.584;23.164;2023-07-13T10:03:25;5.07;;;3.40;;
10201;SDS011;5143;42.584;23.164;2023-07-13T10:05:53;10.73;;;4.07;;
10201;SDS011;5143;42.584;23.164;2023-07-13T10:08:21;5.60;;;3.03;;
10201;SDS011;5143;42.584;23.164;2023-07-13T10:10:53;6.30;;;3.53;;
10201;SDS011;5143;42.584;23.164;2023-07-13T10:13:28;9.20;;;3.20;;
10201;SDS011;5143;42.584;23.164;2023-07-13T10:15:59;5.60;;;3.10;;
10201;SDS011;5143;42.584;23.164;2023-07-13T10:18:27;4.47;;;3.45;;
10201;SDS011;5143;42.584;23.164;2023-07-13T10:20:58;8.45;;;3.83;;
10201;SDS011;5143;42.584;23.164;2023-07-13T10:23:36;6.07;;;3.13;;
10201;SDS011;5143;42.584;23.164;2023-07-13T10:26:04;11.25;;;3.88;;
10201;SDS011;5143;42.584;23.164;2023-07-13T10:28:38;7.22;;;3.03;;
10201;SDS011;5143;42.584;23.164;2023-07-13T10:31:09;11.95;;;3.35;;
10201;SDS011;5143;42.584;23.164;2023-07-13T10:33:41;4.80;;;3.20;;
10201;SDS011;5143;42.584;23.164;2023-07-13T10:36:12;6.25;;;3.20;;
10201;SDS011;5143;42.584;23.164;2023-07-13T10:38:44;4.85;;;3.50;;
10201;SDS011;5143;42.584;23.164;2023-07-13T10:41:15;6.15;;;3.20;;
10201;SDS011;5143;42.584;23.164;2023-07-13T10:43:45;6.78;;;3.55;;
10201;SDS011;5143;42.584;23.164;2023-07-13T10:46:16;4.53;;;3.17;;
10201;SDS011;5143;42.584;23.164;2023-07-13T10:48:49;8.68;;;3.42;;
10201;SDS011;5143;42.584;23.164;2023-07-13T10:51:20;5.30;;;2.80;;
10201;SDS011;5143;42.584;23.164;2023-07-13T10:53:48;10.10;;;3.58;;
10201;SDS011;5143;42.584;23.164;2023-07-13T10:56:48;6.10;;;3.53;;
10201;SDS011;5143;42.584;23.164;2023-07-13T10:59:17;7.18;;;3.63;;
10201;SDS011;5143;42.584;23.164;2023-07-13T11:01:53;4.45;;;2.97;;
10201;SDS011;5143;42.584;23.164;2023-07-13T11:04:24;5.72;;;3.10;;
10201;SDS011;5143;42.584;23.164;2023-07-13T11:06:53;7.40;;;3.83;;
10201;SDS011;5143;42.584;23.164;2023-07-13T11:09:32;6.70;;;3.38;;
10201;SDS011;5143;42.584;23.164;2023-07-13T11:12:02;6.53;;;3.30;;
10201;SDS011;5143;42.584;23.164;2023-07-13T11:14:35;4.60;;;2.97;;
10201;SDS011;5143;42.584;23.164;2023-07-13T11:20:10;4.28;;;3.05;;
10201;SDS011;5143;42.584;23.164;2023-07-13T11:22:48;6.97;;;3.08;;
10201;SDS011;5143;42.584;23.164;2023-07-13T11:25:26;8.23;;;3.83;;
10201;SDS011;5143;42.584;23.164;2023-07-13T11:28:06;5.55;;;3.65;;
10201;SDS011;5143;42.584;23.164;2023-07-13T11:30:43;4.93;;;2.95;;
10201;SDS011;5143;42.584;23.164;2023-07-13T11:33:16;7.93;;;3.35;;
10201;SDS011;5143;42.584;23.164;2023-07-13T11:35:51;5.72;;;3.35;;
10201;SDS011;5143;42.584;23.164;2023-07-13T11:38:27;8.32;;;3.50;;
10201;SDS011;5143;42.584;23.164;2023-07-13T11:40:58;4.30;;;3.20;;
10201;SDS011;5143;42.584;23.164;2023-07-13T11:43:29;7.40;;;3.30;;
10201;SDS011;5143;42.584;23.164;2023-07-13T11:45:58;8.30;;;3.58;;
10201;SDS011;5143;42.584;23.164;2023-07-13T11:48:26;5.47;;;3.35;;
10201;SDS011;5143;42.584;23.164;2023-07-13T11:50:58;5.35;;;3.55;;
10201;SDS011;5143;42.584;23.164;2023-07-13T11:53:31;9.02;;;3.28;;
10201;SDS011;5143;42.584;23.164;2023-07-13T11:56:04;5.07;;;3.40;;
10201;SDS011;5143;42.584;23.164;2023-07-13T11:58:32;6.20;;;2.65;;
10201;SDS011;5143;42.584;23.164;2023-07-13T12:01:00;8.48;;;3.10;;
10201;SDS011;5143;42.584;23.164;2023-07-13T12:03:30;4.78;;;2.95;;
10201;SDS011;5143;42.584;23.164;2023-07-13T12:06:01;9.98;;;4.15;;
10201;SDS011;5143;42.584;23.164;2023-07-13T12:08:31;10.40;;;3.28;;
10201;SDS011;5143;42.584;23.164;2023-07-13T12:11:05;6.40;;;3.20;;
10201;SDS011;5143;42.584;23.164;2023-07-13T12:13:38;7.63;;;3.00;;
10201;SDS011;5143;42.584;23.164;2023-07-13T12:16:11;9.77;;;3.35;;
10201;SDS011;5143;42.584;23.164;2023-07-13T12:18:42;11.23;;;3.33;;
10201;SDS011;5143;42.584;23.164;2023-07-13T12:21:16;10.57;;;3.30;;
10201;SDS011;5143;42.584;23.164;2023-07-13T12:23:44;6.13;;;3.40;;
10201;SDS011;5143;42.584;23.164;2023-07-13T12:26:14;8.20;;;3.00;;
10201;SDS011;5143;42.584;23.164;2023-07-13T12:28:45;6.15;;;3.05;;
10201;SDS011;5143;42.584;23.164;2023-07-13T12:31:23;5.20;;;3.00;;
10201;SDS011;5143;42.584;23.164;2023-07-13T12:33:56;6.55;;;3.08;;
10201;SDS011;5143;42.584;23.164;2023-07-13T12:36:25;6.65;;;2.90;;
10201;SDS011;5143;42.584;23.164;2023-07-13T12:38:54;6.07;;;3.03;;
10201;SDS011;5143;42.584;23.164;2023-07-13T12:41:21;5.53;;;3.15;;
10201;SDS011;5143;42.584;23.164;2023-07-13T12:43:49;8.75;;;3.42;;
10201;SDS011;5143;42.584;23.164;2023-07-13T12:46:17;6.38;;;3.30;;
10201;SDS011;5143;42.584;23.164;2023-07-13T12:48:47;11.52;;;2.95;;
10201;SDS011;5143;42.584;23.164;2023-07-13T12:51:15;9.52;;;2.90;;
10201;SDS011;5143;42.584;23.164;2023-07-13T12:53:47;6.47;;;2.72;;
10201;SDS011;5143;42.584;23.164;2023-07-13T12:56:17;9.27;;;3.22;;
10201;SDS011;5143;42.584;23.164;2023-07-13T12:58:47;7.45;;;3.55;;
10201;SDS011;5143;42.584;23.164;2023-07-13T13:01:20;5.97;;;2.83;;
10201;SDS011;5143;42.584;23.164;2023-07-13T13:03:49;6.22;;;2.90;;
10201;SDS011;5143;42.584;23.164;2023-07-13T13:06:21;6.15;;;2.75;;
10201;SDS011;5143;42.584;23.164;2023-07-13T13:08:52;8.55;;;2.95;;
10201;SDS011;5143;42.584;23.164;2023-07-13T13:11:21;4.55;;;2.70;;
10201;SDS011;5143;42.584;23.164;2023-07-13T13:13:51;8.02;;;2.70;;
10201;SDS011;5143;42.584;23.164;2023-07-13T13:16:19;7.32;;;3.33;;
10201;SDS011;5143;42.584;23.164;2023-07-13T13:18:48;7.72;;;3.00;;
10201;SDS011;5143;42.584;23.164;2023-07-13T13:21:16;11.70;;;3.08;;
10201;SDS011;5143;42.584;23.164;2023-07-13T13:23:44;7.47;;;2.63;;
10201;SDS011;5143;42.584;23.164;2023-07-13T13:26:13;6.47;;;3.05;;
10201;SDS011;5143;42.584;23.164;2023-07-13T13:28:41;6.70;;;2.92;;
10201;SDS011;5143;42.584;23.164;2023-07-13T13:31:09;8.73;;;3.15;;
10201;SDS011;5143;42.584;23.164;2023-07-13T13:33:38;11.25;;;3.03;;
10201;SDS011;5143;42.584;23.164;2023-07-13T13:36:11;9.10;;;3.00;;
10201;SDS011;5143;42.584;23.164;2023-07-13T13:38:40;8.70;;;2.95;;
10201;SDS011;5143;42.584;23.164;2023-07-13T13:41:08;10.35;;;3.35;;
10201;SDS011;5143;42.584;23.164;2023-07-13T13:43:37;12.40;;;3.60;;
10201;SDS011;5143;42.584;23.164;2023-07-13T13:46:08;9.07;;;3.50;;
10201;SDS011;5143;42.584;23.164;2023-07-13T13:48:39;9.20;;;3.35;;
10201;SDS011;5143;42.584;23.164;2023-07-13T13:51:11;7.90;;;3.10;;
10201;SDS011;5143;42.584;23.164;2023-07-13T13:53:41;7.15;;;2.90;;
10201;SDS011;5143;42.584;23.164;2023-07-13T13:56:08;6.55;;;3.67;;
10201;SDS011;5143;42.584;23.164;2023-07-13T13:58:35;10.73;;;3.08;;
10201;SDS011;5143;42.584;23.164;2023-07-13T14:01:03;16.88;;;3.22;;
10201;SDS011;5143;42.584;23.164;2023-07-13T14:03:33;6.55;;;3.53;;
10201;SDS011;5143;42.584;23.164;2023-07-13T14:06:00;6.90;;;3.03;;
10201;SDS011;5143;42.584;23.164;2023-07-13T14:08:27;6.55;;;3.08;;
10201;SDS011;5143;42.584;23.164;2023-07-13T14:10:54;7.00;;;3.08;;
10201;SDS011;5143;42.584;23.164;2023-07-13T14:13:26;8.65;;;3.38;;
10201;SDS011;5143;42.584;23.164;2023-07-13T14:15:54;8.82;;;3.15;;
10201;SDS011;5143;42.584;23.164;2023-07-13T14:18:23;7.47;;;3.53;;
10201;SDS011;5143;42.584;23.164;2023-07-13T14:20:50;6.88;;;2.80;;
10201;SDS011;5143;42.584;23.164;2023-07-13T14:23:17;7.05;;;3.10;;
10201;SDS011;5143;42.584;23.164;2023-07-13T14:25:44;8.40;;;3.28;;
10201;SDS011;5143;42.584;23.164;2023-07-13T14:28:17;6.30;;;3.25;;
10201;SDS011;5143;42.584;23.164;2023-07-13T14:30:47;8.02;;;3.38;;
10201;SDS011;5143;42.584;23.164;2023-07-13T14:33:14;9.55;;;3.47;;
10201;SDS011;5143;42.584;23.164;2023-07-13T14:35:43;14.90;;;3.10;;
10201;SDS011;5143;42.584;23.164;2023-07-13T14:38:11;6.85;;;2.83;;
10201;SDS011;5143;42.584;23.164;2023-07-13T14:40:40;9.00;;;3.35;;
10201;SDS011;5143;42.584;23.164;2023-07-13T14:43:09;7.28;;;2.88;;
10201;SDS011;5143;42.584;23.164;2023-07-13T14:45:38;4.68;;;2.95;;
10201;SDS011;5143;42.584;23.164;2023-07-13T14:48:12;5.32;;;2.67;;
10201;SDS011;5143;42.584;23.164;2023-07-13T14:50:43;8.13;;;3.55;;
10201;SDS011;5143;42.584;23.164;2023-07-13T14:53:10;9.27;;;3.42;;
10201;SDS011;5143;42.584;23.164;2023-07-13T14:55:37;4.85;;;2.80;;